sensor_id;sensor_type;location;lat;lon;timestamp;temperature;humidity
52941;DHT22;62001;53.366;6.636;2022-09-21T00:00:36;9.10;99.90
52941;DHT22;62001;53.366;6.636;2022-09-21T00:03:02;9.10;99.90
52941;DHT22;62001;53.366;6.636;2022-09-21T00:05:28;9.10;99.90
52941;DHT22;62001;53.366;6.636;2022-09-21T00:07:54;9.10;99.90
52941;DHT22;62001;53.366;6.636;2022-09-21T00:10:20;9.10;99.90
52941;DHT22;62001;53.366;6.636;2022-09-21T00:12:47;9.10;99.90
52941;DHT22;62001;53.366;6.636;2022-09-21T00:15:15;9.10;99.90
52941;DHT22;62001;53.366;6.636;2022-09-21T00:17:45;9.00;99.90
52941;DHT22;62001;53.366;6.636;2022-09-21T00:20:13;9.00;99.90
52941;DHT22;62001;53.366;6.636;2022-09-21T00:22:39;9.00;99.90
52941;DHT22;62001;53.366;6.636;2022-09-21T00:25:07;8.90;99.90
52941;DHT22;62001;53.366;6.636;2022-09-21T00:27:33;8.80;99.90
52941;DHT22;62001;53.366;6.636;2022-09-21T00:30:00;8.80;99.90
52941;DHT22;62001;53.366;6.636;2022-09-21T00:32:29;8.80;99.90
52941;DHT22;62001;53.366;6.636;2022-09-21T00:34:57;8.70;99.90
52941;DHT22;62001;53.366;6.636;2022-09-21T00:37:23;8.70;99.90
52941;DHT22;62001;53.366;6.636;2022-09-21T00:39:49;8.70;99.90
52941;DHT22;62001;53.366;6.636;2022-09-21T00:42:26;8.60;99.90
52941;DHT22;62001;53.366;6.636;2022-09-21T00:44:53;8.60;99.90
52941;DHT22;62001;53.366;6.636;2022-09-21T00:47:33;8.60;99.90
52941;DHT22;62001;53.366;6.636;2022-09-21T00:50:04;8.60;99.90
52941;DHT22;62001;53.366;6.636;2022-09-21T00:52:34;8.50;99.90
52941;DHT22;62001;53.366;6.636;2022-09-21T00:57:35;8.50;99.90
52941;DHT22;62001;53.366;6.636;2022-09-21T01:00:05;8.40;99.90
52941;DHT22;62001;53.366;6.636;2022-09-21T01:02:37;8.40;99.90
52941;DHT22;62001;53.366;6.636;2022-09-21T01:05:04;8.40;99.90
52941;DHT22;62001;53.366;6.636;2022-09-21T01:07:33;8.40;99.90
52941;DHT22;62001;53.366;6.636;2022-09-21T01:10:05;8.40;99.90
52941;DHT22;62001;53.366;6.636;2022-09-21T01:13:06;8.30;99.90
52941;DHT22;62001;53.366;6.636;2022-09-21T01:21:20;8.10;99.90
52941;DHT22;62001;53.366;6.636;2022-09-21T01:23:58;8.10;99.90
52941;DHT22;62001;53.366;6.636;2022-09-21T01:26:36;8.10;99.90
52941;DHT22;62001;53.366;6.636;2022-09-21T01:29:12;8.00;99.90
52941;DHT22;62001;53.366;6.636;2022-09-21T01:34:48;8.20;99.90
52941;DHT22;62001;53.366;6.636;2022-09-21T01:37:19;8.20;99.90
52941;DHT22;62001;53.366;6.636;2022-09-21T01:39:51;8.30;99.90
52941;DHT22;62001;53.366;6.636;2022-09-21T01:42:20;8.30;99.90
52941;DHT22;62001;53.366;6.636;2022-09-21T01:44:48;8.30;99.90
52941;DHT22;62001;53.366;6.636;2022-09-21T01:47:16;8.20;99.90
52941;DHT22;62001;53.366;6.636;2022-09-21T01:49:49;8.10;99.90
52941;DHT22;62001;53.366;6.636;2022-09-21T01:55:10;8.00;99.90
52941;DHT22;62001;53.366;6.636;2022-09-21T02:00:21;8.00;99.90
52941;DHT22;62001;53.366;6.636;2022-09-21T02:02:58;8.00;99.90
52941;DHT22;62001;53.366;6.636;2022-09-21T02:05:27;8.00;99.90
52941;DHT22;62001;53.366;6.636;2022-09-21T02:07:55;8.00;99.90
52941;DHT22;62001;53.366;6.636;2022-09-21T02:10:32;8.00;99.90
52941;DHT22;62001;53.366;6.636;2022-09-21T02:13:02;8.00;99.90
52941;DHT22;62001;53.366;6.636;2022-09-21T02:18:51;7.90;99.90
52941;DHT22;62001;53.366;6.636;2022-09-21T02:24:48;7.80;99.90
52941;DHT22;62001;53.366;6.636;2022-09-21T02:27:31;7.80;99.90
52941;DHT22;62001;53.366;6.636;2022-09-21T02:30:20;7.70;99.90
52941;DHT22;62001;53.366;6.636;2022-09-21T02:35:45;7.60;99.90
52941;DHT22;62001;53.366;6.636;2022-09-21T02:38:39;7.60;99.90
52941;DHT22;62001;53.366;6.636;2022-09-21T02:41:10;7.50;99.90
52941;DHT22;62001;53.366;6.636;2022-09-21T02:43:57;7.50;99.90
52941;DHT22;62001;53.366;6.636;2022-09-21T02:46:29;7.40;99.90
52941;DHT22;62001;53.366;6.636;2022-09-21T02:48:59;7.40;99.90
52941;DHT22;62001;53.366;6.636;2022-09-21T02:51:44;7.40;99.90
52941;DHT22;62001;53.366;6.636;2022-09-21T02:54:15;7.40;99.90
52941;DHT22;62001;53.366;6.636;2022-09-21T02:56:42;7.50;99.90
52941;DHT22;62001;53.366;6.636;2022-09-21T02:59:09;7.50;99.90
52941;DHT22;62001;53.366;6.636;2022-09-21T03:01:35;7.50;99.90
52941;DHT22;62001;53.366;6.636;2022-09-21T03:04:03;7.50;99.90
52941;DHT22;62001;53.366;6.636;2022-09-21T03:06:29;7.60;99.90
52941;DHT22;62001;53.366;6.636;2022-09-21T03:08:56;7.60;99.90
52941;DHT22;62001;53.366;6.636;2022-09-21T03:11:23;7.60;99.90
52941;DHT22;62001;53.366;6.636;2022-09-21T03:13:49;7.60;99.90
52941;DHT22;62001;53.366;6.636;2022-09-21T03:16:15;7.60;99.90
52941;DHT22;62001;53.366;6.636;2022-09-21T03:18:41;7.60;99.90
52941;DHT22;62001;53.366;6.636;2022-09-21T03:21:11;7.60;99.90
52941;DHT22;62001;53.366;6.636;2022-09-21T03:23:38;7.60;99.90
52941;DHT22;62001;53.366;6.636;2022-09-21T03:26:04;7.60;99.90
52941;DHT22;62001;53.366;6.636;2022-09-21T03:28:30;7.50;99.90
52941;DHT22;62001;53.366;6.636;2022-09-21T03:30:55;7.50;99.90
52941;DHT22;62001;53.366;6.636;2022-09-21T03:33:21;7.50;99.90
52941;DHT22;62001;53.366;6.636;2022-09-21T03:35:48;7.50;99.90
52941;DHT22;62001;53.366;6.636;2022-09-21T03:38:14;7.50;99.90
52941;DHT22;62001;53.366;6.636;2022-09-21T03:40:47;7.50;99.90
52941;DHT22;62001;53.366;6.636;2022-09-21T03:43:14;7.50;99.90
52941;DHT22;62001;53.366;6.636;2022-09-21T03:45:40;7.50;99.90
52941;DHT22;62001;53.366;6.636;2022-09-21T03:48:08;7.50;99.90
52941;DHT22;62001;53.366;6.636;2022-09-21T03:50:35;7.60;99.90
52941;DHT22;62001;53.366;6.636;2022-09-21T03:53:01;7.60;99.90
52941;DHT22;62001;53.366;6.636;2022-09-21T03:55:27;7.60;99.90
52941;DHT22;62001;53.366;6.636;2022-09-21T03:57:54;7.60;99.90
52941;DHT22;62001;53.366;6.636;2022-09-21T04:00:20;7.60;99.90
52941;DHT22;62001;53.366;6.636;2022-09-21T04:02:46;7.70;99.90
52941;DHT22;62001;53.366;6.636;2022-09-21T04:05:14;7.70;99.90
52941;DHT22;62001;53.366;6.636;2022-09-21T04:07:42;7.70;99.90
52941;DHT22;62001;53.366;6.636;2022-09-21T04:10:12;7.70;99.90
52941;DHT22;62001;53.366;6.636;2022-09-21T04:12:39;7.70;99.90
52941;DHT22;62001;53.366;6.636;2022-09-21T04:15:18;7.80;99.90
52941;DHT22;62001;53.366;6.636;2022-09-21T04:17:45;7.80;99.90
52941;DHT22;62001;53.366;6.636;2022-09-21T04:20:11;7.80;99.90
52941;DHT22;62001;53.366;6.636;2022-09-21T04:22:37;7.80;99.90
52941;DHT22;62001;53.366;6.636;2022-09-21T04:25:04;7.80;99.90
52941;DHT22;62001;53.366;6.636;2022-09-21T04:27:31;7.90;99.90
52941;DHT22;62001;53.366;6.636;2022-09-21T04:29:58;7.90;99.90
52941;DHT22;62001;53.366;6.636;2022-09-21T04:32:24;7.90;99.90
52941;DHT22;62001;53.366;6.636;2022-09-21T04:34:50;7.90;99.90
52941;DHT22;62001;53.366;6.636;2022-09-21T04:37:16;7.90;99.90
52941;DHT22;62001;53.366;6.636;2022-09-21T04:39:41;8.00;99.90
52941;DHT22;62001;53.366;6.636;2022-09-21T04:42:08;7.90;99.90
52941;DHT22;62001;53.366;6.636;2022-09-21T04:44:34;7.90;99.90
52941;DHT22;62001;53.366;6.636;2022-09-21T04:47:00;7.90;99.90
52941;DHT22;62001;53.366;6.636;2022-09-21T04:49:26;7.90;99.90
52941;DHT22;62001;53.366;6.636;2022-09-21T04:51:52;7.90;99.90
52941;DHT22;62001;53.366;6.636;2022-09-21T04:54:18;7.80;99.90
52941;DHT22;62001;53.366;6.636;2022-09-21T04:56:44;7.80;99.90
52941;DHT22;62001;53.366;6.636;2022-09-21T04:59:09;7.80;99.90
52941;DHT22;62001;53.366;6.636;2022-09-21T05:01:35;7.70;99.90
52941;DHT22;62001;53.366;6.636;2022-09-21T05:04:01;7.70;99.90
52941;DHT22;62001;53.366;6.636;2022-09-21T05:06:28;7.70;99.90
52941;DHT22;62001;53.366;6.636;2022-09-21T05:08:54;7.70;99.90
52941;DHT22;62001;53.366;6.636;2022-09-21T05:11:38;7.60;99.90
52941;DHT22;62001;53.366;6.636;2022-09-21T05:14:04;7.60;99.90
52941;DHT22;62001;53.366;6.636;2022-09-21T05:16:30;7.60;99.90
52941;DHT22;62001;53.366;6.636;2022-09-21T05:18:56;7.60;99.90
52941;DHT22;62001;53.366;6.636;2022-09-21T05:21:22;7.60;99.90
52941;DHT22;62001;53.366;6.636;2022-09-21T05:23:48;7.70;99.90
52941;DHT22;62001;53.366;6.636;2022-09-21T05:26:14;7.80;99.90
52941;DHT22;62001;53.366;6.636;2022-09-21T05:28:40;7.80;99.90
52941;DHT22;62001;53.366;6.636;2022-09-21T05:39:17;7.90;99.90
52941;DHT22;62001;53.366;6.636;2022-09-21T05:41:43;7.90;99.90
52941;DHT22;62001;53.366;6.636;2022-09-21T05:44:12;7.90;99.90
52941;DHT22;62001;53.366;6.636;2022-09-21T05:49:35;7.90;99.90
52941;DHT22;62001;53.366;6.636;2022-09-21T05:52:26;7.90;99.90
52941;DHT22;62001;53.366;6.636;2022-09-21T05:55:11;8.00;99.90
52941;DHT22;62001;53.366;6.636;2022-09-21T05:58:17;8.00;99.90
52941;DHT22;62001;53.366;6.636;2022-09-21T06:03:30;8.10;99.90
52941;DHT22;62001;53.366;6.636;2022-09-21T06:05:57;8.20;99.90
52941;DHT22;62001;53.366;6.636;2022-09-21T06:08:24;8.20;99.90
52941;DHT22;62001;53.366;6.636;2022-09-21T06:10:51;8.20;99.90
52941;DHT22;62001;53.366;6.636;2022-09-21T06:13:17;8.30;99.90
52941;DHT22;62001;53.366;6.636;2022-09-21T06:15:43;8.30;99.90
52941;DHT22;62001;53.366;6.636;2022-09-21T06:18:09;8.30;99.90
52941;DHT22;62001;53.366;6.636;2022-09-21T06:20:35;8.40;99.90
52941;DHT22;62001;53.366;6.636;2022-09-21T06:23:05;8.40;99.90
52941;DHT22;62001;53.366;6.636;2022-09-21T06:25:32;8.50;99.90
52941;DHT22;62001;53.366;6.636;2022-09-21T06:28:09;8.60;99.90
52941;DHT22;62001;53.366;6.636;2022-09-21T06:30:36;8.60;99.90
52941;DHT22;62001;53.366;6.636;2022-09-21T06:33:04;8.70;99.90
52941;DHT22;62001;53.366;6.636;2022-09-21T06:35:31;8.80;99.90
52941;DHT22;62001;53.366;6.636;2022-09-21T06:37:59;8.90;99.90
52941;DHT22;62001;53.366;6.636;2022-09-21T06:40:26;8.90;99.90
52941;DHT22;62001;53.366;6.636;2022-09-21T06:42:56;9.00;99.90
52941;DHT22;62001;53.366;6.636;2022-09-21T06:45:22;9.10;99.90
52941;DHT22;62001;53.366;6.636;2022-09-21T06:47:48;9.20;99.90
52941;DHT22;62001;53.366;6.636;2022-09-21T06:50:14;9.30;99.90
52941;DHT22;62001;53.366;6.636;2022-09-21T06:52:40;9.40;99.90
52941;DHT22;62001;53.366;6.636;2022-09-21T06:55:07;9.60;99.90
52941;DHT22;62001;53.366;6.636;2022-09-21T06:57:35;9.70;99.90
52941;DHT22;62001;53.366;6.636;2022-09-21T07:00:04;10.30;99.90
52941;DHT22;62001;53.366;6.636;2022-09-21T07:02:30;11.20;99.90
52941;DHT22;62001;53.366;6.636;2022-09-21T07:04:56;12.80;99.90
52941;DHT22;62001;53.366;6.636;2022-09-21T07:07:23;14.80;99.90
52941;DHT22;62001;53.366;6.636;2022-09-21T07:09:49;16.60;99.90
52941;DHT22;62001;53.366;6.636;2022-09-21T07:12:14;17.80;99.90
52941;DHT22;62001;53.366;6.636;2022-09-21T07:14:41;18.30;99.90
52941;DHT22;62001;53.366;6.636;2022-09-21T07:17:09;18.30;99.90
52941;DHT22;62001;53.366;6.636;2022-09-21T07:19:35;18.40;99.90
52941;DHT22;62001;53.366;6.636;2022-09-21T07:22:06;18.80;99.90
52941;DHT22;62001;53.366;6.636;2022-09-21T07:24:32;20.00;99.90
52941;DHT22;62001;53.366;6.636;2022-09-21T07:26:58;21.10;99.90
52941;DHT22;62001;53.366;6.636;2022-09-21T07:29:23;22.10;99.90
52941;DHT22;62001;53.366;6.636;2022-09-21T07:31:49;22.80;99.90
52941;DHT22;62001;53.366;6.636;2022-09-21T07:34:16;22.80;99.90
52941;DHT22;62001;53.366;6.636;2022-09-21T07:36:42;22.40;99.90
52941;DHT22;62001;53.366;6.636;2022-09-21T07:39:08;21.80;99.90
52941;DHT22;62001;53.366;6.636;2022-09-21T07:41:35;21.60;99.90
52941;DHT22;62001;53.366;6.636;2022-09-21T07:44:01;21.60;99.90
52941;DHT22;62001;53.366;6.636;2022-09-21T07:46:28;21.40;99.90
52941;DHT22;62001;53.366;6.636;2022-09-21T07:48:54;21.00;99.90
52941;DHT22;62001;53.366;6.636;2022-09-21T07:51:21;20.70;99.90
52941;DHT22;62001;53.366;6.636;2022-09-21T07:53:47;20.50;99.90
52941;DHT22;62001;53.366;6.636;2022-09-21T07:56:14;21.20;99.90
52941;DHT22;62001;53.366;6.636;2022-09-21T07:58:41;22.30;99.90
52941;DHT22;62001;53.366;6.636;2022-09-21T08:01:27;23.30;99.90
52941;DHT22;62001;53.366;6.636;2022-09-21T08:03:55;23.50;99.90
52941;DHT22;62001;53.366;6.636;2022-09-21T08:06:23;23.00;99.90
52941;DHT22;62001;53.366;6.636;2022-09-21T08:08:49;22.30;99.70
52941;DHT22;62001;53.366;6.636;2022-09-21T08:11:18;21.70;99.90
52941;DHT22;62001;53.366;6.636;2022-09-21T08:13:44;21.00;99.90
52941;DHT22;62001;53.366;6.636;2022-09-21T08:16:10;20.50;99.90
52941;DHT22;62001;53.366;6.636;2022-09-21T08:18:38;20.10;99.90
52941;DHT22;62001;53.366;6.636;2022-09-21T08:21:05;19.80;99.90
52941;DHT22;62001;53.366;6.636;2022-09-21T08:23:31;19.50;99.90
52941;DHT22;62001;53.366;6.636;2022-09-21T08:26:04;19.20;99.90
52941;DHT22;62001;53.366;6.636;2022-09-21T08:28:31;18.90;99.90
52941;DHT22;62001;53.366;6.636;2022-09-21T08:31:05;18.70;99.90
52941;DHT22;62001;53.366;6.636;2022-09-21T08:33:33;18.50;99.90
52941;DHT22;62001;53.366;6.636;2022-09-21T08:35:59;18.30;99.90
52941;DHT22;62001;53.366;6.636;2022-09-21T08:38:26;18.20;99.90
52941;DHT22;62001;53.366;6.636;2022-09-21T08:40:53;18.00;99.90
52941;DHT22;62001;53.366;6.636;2022-09-21T08:43:34;17.90;99.90
52941;DHT22;62001;53.366;6.636;2022-09-21T08:46:06;17.80;99.90
52941;DHT22;62001;53.366;6.636;2022-09-21T08:48:39;17.60;99.90
52941;DHT22;62001;53.366;6.636;2022-09-21T08:51:12;17.50;99.90
52941;DHT22;62001;53.366;6.636;2022-09-21T08:53:43;17.40;99.90
52941;DHT22;62001;53.366;6.636;2022-09-21T08:56:11;17.40;99.90
52941;DHT22;62001;53.366;6.636;2022-09-21T08:58:38;17.30;99.90
52941;DHT22;62001;53.366;6.636;2022-09-21T09:14:43;17.40;99.90
52941;DHT22;62001;53.366;6.636;2022-09-21T09:17:29;17.50;99.90
52941;DHT22;62001;53.366;6.636;2022-09-21T09:20:17;17.60;99.90
52941;DHT22;62001;53.366;6.636;2022-09-21T09:22:56;17.70;99.90
52941;DHT22;62001;53.366;6.636;2022-09-21T09:25:33;17.70;99.90
52941;DHT22;62001;53.366;6.636;2022-09-21T09:30:59;17.40;99.90
52941;DHT22;62001;53.366;6.636;2022-09-21T09:33:49;17.40;99.90
52941;DHT22;62001;53.366;6.636;2022-09-21T09:36:17;17.30;99.90
52941;DHT22;62001;53.366;6.636;2022-09-21T09:38:54;17.40;99.90
52941;DHT22;62001;53.366;6.636;2022-09-21T09:41:46;17.30;99.90
52941;DHT22;62001;53.366;6.636;2022-09-21T09:47:28;17.30;99.90
52941;DHT22;62001;53.366;6.636;2022-09-21T09:50:03;17.30;99.90
52941;DHT22;62001;53.366;6.636;2022-09-21T09:52:33;17.20;99.90
52941;DHT22;62001;53.366;6.636;2022-09-21T09:57:56;17.20;99.90
52941;DHT22;62001;53.366;6.636;2022-09-21T10:00:23;17.20;99.90
52941;DHT22;62001;53.366;6.636;2022-09-21T10:02:54;17.20;99.90
52941;DHT22;62001;53.366;6.636;2022-09-21T10:05:29;17.30;99.90
52941;DHT22;62001;53.366;6.636;2022-09-21T10:07:56;17.50;99.90
52941;DHT22;62001;53.366;6.636;2022-09-21T10:18:24;18.10;99.90
52941;DHT22;62001;53.366;6.636;2022-09-21T10:20:56;18.30;99.90
52941;DHT22;62001;53.366;6.636;2022-09-21T10:23:24;18.40;99.90
52941;DHT22;62001;53.366;6.636;2022-09-21T10:26:06;18.40;99.90
52941;DHT22;62001;53.366;6.636;2022-09-21T10:28:33;18.50;99.90
52941;DHT22;62001;53.366;6.636;2022-09-21T10:31:17;18.50;99.90
52941;DHT22;62001;53.366;6.636;2022-09-21T10:33:51;18.50;99.90
52941;DHT22;62001;53.366;6.636;2022-09-21T10:36:51;18.50;99.90
52941;DHT22;62001;53.366;6.636;2022-09-21T10:39:34;18.40;99.90
52941;DHT22;62001;53.366;6.636;2022-09-21T10:44:44;18.00;99.90
52941;DHT22;62001;53.366;6.636;2022-09-21T10:47:40;18.00;99.90
52941;DHT22;62001;53.366;6.636;2022-09-21T10:50:24;17.80;99.90
52941;DHT22;62001;53.366;6.636;2022-09-21T10:52:58;17.70;99.90
52941;DHT22;62001;53.366;6.636;2022-09-21T10:55:25;17.50;99.90
52941;DHT22;62001;53.366;6.636;2022-09-21T10:57:53;17.50;99.90
52941;DHT22;62001;53.366;6.636;2022-09-21T11:00:27;17.50;99.90
52941;DHT22;62001;53.366;6.636;2022-09-21T11:05:49;17.70;99.90
52941;DHT22;62001;53.366;6.636;2022-09-21T11:08:27;17.90;99.90
52941;DHT22;62001;53.366;6.636;2022-09-21T11:11:28;18.00;99.90
52941;DHT22;62001;53.366;6.636;2022-09-21T11:19:34;18.00;99.90
52941;DHT22;62001;53.366;6.636;2022-09-21T11:22:26;17.90;99.90
52941;DHT22;62001;53.366;6.636;2022-09-21T11:27:46;17.60;99.90
52941;DHT22;62001;53.366;6.636;2022-09-21T11:30:18;17.20;99.90
52941;DHT22;62001;53.366;6.636;2022-09-21T11:35:29;17.00;99.90
52941;DHT22;62001;53.366;6.636;2022-09-21T11:41:01;17.00;99.90
52941;DHT22;62001;53.366;6.636;2022-09-21T11:52:10;16.30;99.90
52941;DHT22;62001;53.366;6.636;2022-09-21T11:57:17;16.40;99.90
52941;DHT22;62001;53.366;6.636;2022-09-21T12:11:38;17.10;99.90
52941;DHT22;62001;53.366;6.636;2022-09-21T12:16:52;17.10;99.90
52941;DHT22;62001;53.366;6.636;2022-09-21T12:24:43;16.90;99.90
52941;DHT22;62001;53.366;6.636;2022-09-21T12:27:27;16.90;99.90
52941;DHT22;62001;53.366;6.636;2022-09-21T12:30:06;17.10;99.90
52941;DHT22;62001;53.366;6.636;2022-09-21T12:35:17;17.60;99.90
52941;DHT22;62001;53.366;6.636;2022-09-21T12:38:09;17.70;99.90
52941;DHT22;62001;53.366;6.636;2022-09-21T12:40:41;17.90;99.90
52941;DHT22;62001;53.366;6.636;2022-09-21T12:46:06;18.10;99.90
52941;DHT22;62001;53.366;6.636;2022-09-21T12:48:37;18.10;99.90
52941;DHT22;62001;53.366;6.636;2022-09-21T12:53:51;18.20;99.90
52941;DHT22;62001;53.366;6.636;2022-09-21T13:02:00;18.10;99.90
52941;DHT22;62001;53.366;6.636;2022-09-21T13:05:20;18.00;99.90
52941;DHT22;62001;53.366;6.636;2022-09-21T13:10:17;18.00;99.90
52941;DHT22;62001;53.366;6.636;2022-09-21T13:12:45;18.00;99.90
52941;DHT22;62001;53.366;6.636;2022-09-21T13:15:13;18.00;99.90
52941;DHT22;62001;53.366;6.636;2022-09-21T13:17:40;18.00;99.90
52941;DHT22;62001;53.366;6.636;2022-09-21T13:20:18;18.10;99.90
52941;DHT22;62001;53.366;6.636;2022-09-21T13:22:45;18.10;99.90
52941;DHT22;62001;53.366;6.636;2022-09-21T13:30:46;18.40;99.90
52941;DHT22;62001;53.366;6.636;2022-09-21T13:51:51;18.00;99.90
52941;DHT22;62001;53.366;6.636;2022-09-21T13:54:20;17.90;99.90
52941;DHT22;62001;53.366;6.636;2022-09-21T13:57:03;17.90;99.90
52941;DHT22;62001;53.366;6.636;2022-09-21T13:59:32;17.90;99.90
52941;DHT22;62001;53.366;6.636;2022-09-21T14:02:00;17.80;99.90
52941;DHT22;62001;53.366;6.636;2022-09-21T14:04:32;17.80;99.90
52941;DHT22;62001;53.366;6.636;2022-09-21T14:07:05;17.90;99.90
52941;DHT22;62001;53.366;6.636;2022-09-21T14:09:51;17.90;99.90
52941;DHT22;62001;53.366;6.636;2022-09-21T14:12:20;17.90;99.90
52941;DHT22;62001;53.366;6.636;2022-09-21T14:15:09;17.80;99.90
52941;DHT22;62001;53.366;6.636;2022-09-21T14:17:39;17.90;99.90
52941;DHT22;62001;53.366;6.636;2022-09-21T14:20:27;17.90;99.90
52941;DHT22;62001;53.366;6.636;2022-09-21T14:25:50;17.80;99.90
52941;DHT22;62001;53.366;6.636;2022-09-21T14:28:20;17.80;99.90
52941;DHT22;62001;53.366;6.636;2022-09-21T14:30:54;17.80;99.90
52941;DHT22;62001;53.366;6.636;2022-09-21T14:33:27;17.80;99.90
52941;DHT22;62001;53.366;6.636;2022-09-21T14:35:55;17.80;99.90
52941;DHT22;62001;53.366;6.636;2022-09-21T14:38:39;17.80;99.90
52941;DHT22;62001;53.366;6.636;2022-09-21T14:41:07;17.90;99.90
52941;DHT22;62001;53.366;6.636;2022-09-21T14:43:35;17.80;99.90
52941;DHT22;62001;53.366;6.636;2022-09-21T14:46:17;17.80;99.90
52941;DHT22;62001;53.366;6.636;2022-09-21T14:48:53;17.80;99.90
52941;DHT22;62001;53.366;6.636;2022-09-21T14:57:27;17.70;99.90
52941;DHT22;62001;53.366;6.636;2022-09-21T15:00:12;17.70;99.90
52941;DHT22;62001;53.366;6.636;2022-09-21T15:02:41;17.60;99.90
52941;DHT22;62001;53.366;6.636;2022-09-21T15:05:26;17.60;99.90
52941;DHT22;62001;53.366;6.636;2022-09-21T15:08:39;17.60;99.90
52941;DHT22;62001;53.366;6.636;2022-09-21T15:11:35;17.70;99.90
52941;DHT22;62001;53.366;6.636;2022-09-21T15:14:19;17.70;99.90
52941;DHT22;62001;53.366;6.636;2022-09-21T15:16:49;17.70;99.90
52941;DHT22;62001;53.366;6.636;2022-09-21T15:19:27;17.60;99.90
52941;DHT22;62001;53.366;6.636;2022-09-21T15:22:16;17.60;99.90
52941;DHT22;62001;53.366;6.636;2022-09-21T15:24:52;17.50;99.90
52941;DHT22;62001;53.366;6.636;2022-09-21T15:27:25;17.50;99.90
52941;DHT22;62001;53.366;6.636;2022-09-21T15:29:53;17.40;99.90
52941;DHT22;62001;53.366;6.636;2022-09-21T15:32:40;17.20;99.90
52941;DHT22;62001;53.366;6.636;2022-09-21T15:35:19;17.00;99.90
52941;DHT22;62001;53.366;6.636;2022-09-21T15:37:46;16.80;99.90
52941;DHT22;62001;53.366;6.636;2022-09-21T15:40:20;16.60;99.90
52941;DHT22;62001;53.366;6.636;2022-09-21T15:46:10;16.50;99.90
52941;DHT22;62001;53.366;6.636;2022-09-21T15:48:39;16.40;99.90
52941;DHT22;62001;53.366;6.636;2022-09-21T15:51:22;16.20;99.90
52941;DHT22;62001;53.366;6.636;2022-09-21T15:53:56;16.10;99.90
52941;DHT22;62001;53.366;6.636;2022-09-21T15:56:26;16.00;99.90
52941;DHT22;62001;53.366;6.636;2022-09-21T15:59:03;16.00;99.90
52941;DHT22;62001;53.366;6.636;2022-09-21T16:01:38;16.00;99.90
52941;DHT22;62001;53.366;6.636;2022-09-21T16:04:06;16.00;99.90
52941;DHT22;62001;53.366;6.636;2022-09-21T16:06:43;15.90;99.90
52941;DHT22;62001;53.366;6.636;2022-09-21T16:11:54;15.80;99.90
52941;DHT22;62001;53.366;6.636;2022-09-21T16:14:21;15.70;99.90
52941;DHT22;62001;53.366;6.636;2022-09-21T16:22:24;15.60;99.90
52941;DHT22;62001;53.366;6.636;2022-09-21T16:24:55;15.50;99.90
52941;DHT22;62001;53.366;6.636;2022-09-21T16:27:26;15.40;99.90
52941;DHT22;62001;53.366;6.636;2022-09-21T16:29:53;15.40;99.90
52941;DHT22;62001;53.366;6.636;2022-09-21T16:32:30;15.40;99.90
52941;DHT22;62001;53.366;6.636;2022-09-21T16:35:23;15.30;99.90
52941;DHT22;62001;53.366;6.636;2022-09-21T16:37:57;15.30;99.90
52941;DHT22;62001;53.366;6.636;2022-09-21T16:40:24;15.20;99.90
52941;DHT22;62001;53.366;6.636;2022-09-21T16:42:50;15.20;99.90
52941;DHT22;62001;53.366;6.636;2022-09-21T16:45:27;15.10;99.90
52941;DHT22;62001;53.366;6.636;2022-09-21T16:47:54;15.10;99.90
52941;DHT22;62001;53.366;6.636;2022-09-21T16:50:20;15.00;99.90
52941;DHT22;62001;53.366;6.636;2022-09-21T16:52:46;14.90;99.90
52941;DHT22;62001;53.366;6.636;2022-09-21T16:55:16;14.80;99.90
52941;DHT22;62001;53.366;6.636;2022-09-21T16:57:42;14.70;99.90
52941;DHT22;62001;53.366;6.636;2022-09-21T17:00:11;14.60;99.90
52941;DHT22;62001;53.366;6.636;2022-09-21T17:02:38;14.60;99.90
52941;DHT22;62001;53.366;6.636;2022-09-21T17:05:08;14.50;99.90
52941;DHT22;62001;53.366;6.636;2022-09-21T17:07:34;14.50;99.90
52941;DHT22;62001;53.366;6.636;2022-09-21T17:10:00;14.40;99.90
52941;DHT22;62001;53.366;6.636;2022-09-21T17:12:34;14.40;99.90
52941;DHT22;62001;53.366;6.636;2022-09-21T17:15:00;14.30;99.90
52941;DHT22;62001;53.366;6.636;2022-09-21T17:17:26;14.20;99.90
52941;DHT22;62001;53.366;6.636;2022-09-21T17:19:52;14.20;99.90
52941;DHT22;62001;53.366;6.636;2022-09-21T17:22:19;14.10;99.90
52941;DHT22;62001;53.366;6.636;2022-09-21T17:24:49;14.00;99.90
52941;DHT22;62001;53.366;6.636;2022-09-21T17:27:16;14.00;99.90
52941;DHT22;62001;53.366;6.636;2022-09-21T17:29:43;13.90;99.90
52941;DHT22;62001;53.366;6.636;2022-09-21T17:32:18;13.90;99.90
52941;DHT22;62001;53.366;6.636;2022-09-21T17:34:45;13.80;99.90
52941;DHT22;62001;53.366;6.636;2022-09-21T17:37:11;13.70;99.90
52941;DHT22;62001;53.366;6.636;2022-09-21T17:39:37;13.60;99.90
52941;DHT22;62001;53.366;6.636;2022-09-21T17:42:20;13.60;99.90
52941;DHT22;62001;53.366;6.636;2022-09-21T17:45:12;13.50;99.90
52941;DHT22;62001;53.366;6.636;2022-09-21T17:47:40;13.40;99.90
52941;DHT22;62001;53.366;6.636;2022-09-21T17:52:35;13.30;99.90
52941;DHT22;62001;53.366;6.636;2022-09-21T17:55:20;13.30;99.90
52941;DHT22;62001;53.366;6.636;2022-09-21T18:00:56;13.10;99.90
52941;DHT22;62001;53.366;6.636;2022-09-21T18:03:27;13.00;99.90
52941;DHT22;62001;53.366;6.636;2022-09-21T18:05:54;13.00;99.90
52941;DHT22;62001;53.366;6.636;2022-09-21T18:08:24;12.90;99.90
52941;DHT22;62001;53.366;6.636;2022-09-21T18:14:19;12.80;99.90
52941;DHT22;62001;53.366;6.636;2022-09-21T18:24:39;12.60;99.90
52941;DHT22;62001;53.366;6.636;2022-09-21T18:27:06;12.50;99.90
52941;DHT22;62001;53.366;6.636;2022-09-21T18:29:33;12.50;99.90
52941;DHT22;62001;53.366;6.636;2022-09-21T18:32:06;12.40;99.90
52941;DHT22;62001;53.366;6.636;2022-09-21T18:48:06;12.10;99.90
52941;DHT22;62001;53.366;6.636;2022-09-21T18:51:00;12.00;99.90
52941;DHT22;62001;53.366;6.636;2022-09-21T18:53:45;12.00;99.90
52941;DHT22;62001;53.366;6.636;2022-09-21T18:56:12;11.90;99.90
52941;DHT22;62001;53.366;6.636;2022-09-21T18:58:39;11.90;99.90
52941;DHT22;62001;53.366;6.636;2022-09-21T19:01:06;11.90;99.90
52941;DHT22;62001;53.366;6.636;2022-09-21T19:03:32;11.90;99.90
52941;DHT22;62001;53.366;6.636;2022-09-21T19:06:06;11.90;99.90
52941;DHT22;62001;53.366;6.636;2022-09-21T19:08:49;11.80;99.90
52941;DHT22;62001;53.366;6.636;2022-09-21T19:14:04;11.70;99.90
52941;DHT22;62001;53.366;6.636;2022-09-21T19:16:34;11.70;99.90
52941;DHT22;62001;53.366;6.636;2022-09-21T19:21:54;11.60;99.90
52941;DHT22;62001;53.366;6.636;2022-09-21T19:25:02;11.60;99.90
52941;DHT22;62001;53.366;6.636;2022-09-21T19:27:33;11.50;99.90
52941;DHT22;62001;53.366;6.636;2022-09-21T19:30:11;11.50;99.90
52941;DHT22;62001;53.366;6.636;2022-09-21T19:32:55;11.50;99.90
52941;DHT22;62001;53.366;6.636;2022-09-21T19:37:53;11.40;99.90
52941;DHT22;62001;53.366;6.636;2022-09-21T19:40:22;11.40;99.90
52941;DHT22;62001;53.366;6.636;2022-09-21T19:43:35;11.30;99.90
52941;DHT22;62001;53.366;6.636;2022-09-21T19:49:02;11.30;99.90